createdAt,value
2022-12-07T00:01:32.580Z,3.30
2022-12-07T00:04:06.952Z,3.40
2022-12-07T00:06:39.342Z,3.40
2022-12-07T00:09:08.103Z,3.40
2022-12-07T00:11:35.397Z,3.30
2022-12-07T00:14:06.976Z,3.30
2022-12-07T00:16:35.329Z,3.30
2022-12-07T00:19:03.218Z,3.40
2022-12-07T00:21:33.059Z,3.40
2022-12-07T00:24:01.078Z,3.40
2022-12-07T00:26:31.110Z,3.40
2022-12-07T00:29:06.584Z,3.40
2022-12-07T00:31:39.617Z,3.40
2022-12-07T00:34:08.567Z,3.30
2022-12-07T00:36:36.219Z,3.30
2022-12-07T00:39:03.886Z,3.30
2022-12-07T00:41:31.935Z,3.20
2022-12-07T00:43:59.189Z,3.30
2022-12-07T00:46:27.232Z,3.30
2022-12-07T00:48:55.334Z,3.30
2022-12-07T00:51:25.237Z,3.20
2022-12-07T00:53:53.179Z,3.20
2022-12-07T00:56:27.035Z,3.40
2022-12-07T00:58:59.493Z,3.40
2022-12-07T01:01:30.011Z,3.50
2022-12-07T01:03:57.804Z,3.40
2022-12-07T01:06:26.522Z,3.40
2022-12-07T01:08:54.823Z,3.40
2022-12-07T01:11:24.968Z,3.40
2022-12-07T01:13:54.024Z,3.40
2022-12-07T01:16:23.453Z,3.40
2022-12-07T01:18:52.789Z,3.40
2022-12-07T01:21:23.543Z,3.50
2022-12-07T01:23:51.512Z,3.50
2022-12-07T01:26:22.285Z,3.50
2022-12-07T01:28:50.070Z,3.50
2022-12-07T01:31:20.675Z,3.50
2022-12-07T01:33:51.860Z,3.50
2022-12-07T01:36:26.822Z,3.40
2022-12-07T01:39:03.725Z,3.40
2022-12-07T01:41:34.130Z,3.40
2022-12-07T01:44:19.492Z,3.40
2022-12-07T01:47:15.962Z,3.50
2022-12-07T01:49:47.593Z,3.50
2022-12-07T01:52:20.055Z,3.50
2022-12-07T01:54:49.363Z,3.50
2022-12-07T01:57:17.840Z,3.50
2022-12-07T01:59:48.137Z,3.50
2022-12-07T02:02:23.976Z,3.40
2022-12-07T02:04:54.244Z,3.40
2022-12-07T02:07:23.735Z,3.40
2022-12-07T02:09:50.866Z,3.30
2022-12-07T02:12:18.316Z,3.30
2022-12-07T02:14:45.650Z,3.30
2022-12-07T02:17:23.648Z,3.30
2022-12-07T02:20:28.895Z,3.40
2022-12-07T02:23:16.197Z,3.40
2022-12-07T02:26:02.209Z,3.40
2022-12-07T02:28:34.378Z,3.40
2022-12-07T02:31:13.892Z,3.30
2022-12-07T02:34:21.114Z,3.30
2022-12-07T02:36:58.346Z,3.40
2022-12-07T02:39:49.455Z,3.40
2022-12-07T02:42:27.943Z,3.40
2022-12-07T02:44:55.269Z,3.50
2022-12-07T02:47:24.487Z,3.50
2022-12-07T02:49:53.061Z,3.40
2022-12-07T02:52:20.242Z,3.40
2022-12-07T02:54:47.559Z,3.40
2022-12-07T02:57:41.086Z,3.30
2022-12-07T03:00:26.167Z,3.40
2022-12-07T03:02:56.774Z,3.40
2022-12-07T03:05:52.111Z,3.40
2022-12-07T03:09:00.948Z,3.50
2022-12-07T03:11:44.399Z,3.50
2022-12-07T03:14:16.739Z,3.50
2022-12-07T03:16:58.133Z,3.50
2022-12-07T03:19:27.949Z,3.50
2022-12-07T03:22:00.695Z,3.60
2022-12-07T03:24:31.931Z,3.60
2022-12-07T03:27:14.257Z,3.60
2022-12-07T03:29:54.509Z,3.60
2022-12-07T03:32:44.068Z,3.60
2022-12-07T03:35:22.439Z,3.60
2022-12-07T03:37:52.390Z,3.60
2022-12-07T03:40:50.506Z,3.60
2022-12-07T03:43:19.494Z,3.60
2022-12-07T03:46:02.309Z,3.50
2022-12-07T03:48:45.347Z,3.50
2022-12-07T03:51:29.110Z,3.50
2022-12-07T03:54:08.274Z,3.50
2022-12-07T03:56:37.464Z,3.50
2022-12-07T03:59:04.925Z,3.50
2022-12-07T04:01:32.932Z,3.50
2022-12-07T04:04:00.205Z,3.50
2022-12-07T04:06:27.370Z,3.50
2022-12-07T04:08:54.542Z,3.50
2022-12-07T04:11:21.790Z,3.60
2022-12-07T04:14:07.815Z,3.60
2022-12-07T04:16:39.639Z,3.60
2022-12-07T04:19:09.918Z,3.60
2022-12-07T04:21:37.119Z,3.60
2022-12-07T04:24:05.171Z,3.50
2022-12-07T04:26:32.447Z,3.60
2022-12-07T04:29:03.524Z,3.60
2022-12-07T04:31:33.458Z,3.60
2022-12-07T04:34:00.692Z,3.60
2022-12-07T04:36:27.910Z,3.60
2022-12-07T04:38:55.981Z,3.60
2022-12-07T04:41:27.908Z,3.60
2022-12-07T04:44:03.489Z,3.50
2022-12-07T04:46:32.236Z,3.40
2022-12-07T04:48:59.645Z,3.40
2022-12-07T04:51:29.455Z,3.40
2022-12-07T04:53:57.354Z,3.30
2022-12-07T04:56:25.414Z,3.30
2022-12-07T04:58:54.751Z,3.20
2022-12-07T05:01:23.251Z,3.20
2022-12-07T05:03:51.094Z,3.10
2022-12-07T05:06:18.311Z,3.10
2022-12-07T05:08:46.034Z,3.00
2022-12-07T05:11:34.072Z,3.10
2022-12-07T05:14:02.439Z,3.00
2022-12-07T05:16:30.091Z,2.80
2022-12-07T05:18:57.541Z,2.80
2022-12-07T05:21:25.295Z,2.80
2022-12-07T05:23:52.554Z,2.80
2022-12-07T05:26:20.038Z,2.80
2022-12-07T05:28:51.962Z,2.70
2022-12-07T05:31:19.541Z,2.70
2022-12-07T05:33:46.948Z,2.80
2022-12-07T05:36:14.175Z,2.80
2022-12-07T05:38:41.885Z,2.80
2022-12-07T05:41:32.439Z,2.80
2022-12-07T05:43:59.593Z,2.80
2022-12-07T05:46:27.119Z,2.80
2022-12-07T05:48:54.285Z,2.70
2022-12-07T05:51:21.726Z,2.70
2022-12-07T05:53:48.949Z,2.70
2022-12-07T05:56:16.518Z,2.70
2022-12-07T05:59:02.229Z,2.70
2022-12-07T06:01:29.403Z,2.70
2022-12-07T06:03:56.730Z,2.70
2022-12-07T06:06:23.997Z,2.70
2022-12-07T06:08:51.577Z,2.70
2022-12-07T06:11:37.443Z,2.60
2022-12-07T06:14:04.581Z,2.60
2022-12-07T06:16:31.784Z,2.50
2022-12-07T06:18:59.144Z,2.50
2022-12-07T06:21:27.553Z,2.50
2022-12-07T06:23:55.076Z,2.50
2022-12-07T06:26:22.379Z,2.60
2022-12-07T06:28:49.574Z,2.60
2022-12-07T06:31:17.078Z,2.60
2022-12-07T06:33:44.483Z,2.60
2022-12-07T06:36:12.576Z,2.60
2022-12-07T06:38:40.058Z,2.60
2022-12-07T06:41:07.563Z,2.60
2022-12-07T06:43:34.879Z,2.60
2022-12-07T06:46:02.239Z,2.70
2022-12-07T06:48:29.465Z,2.70
2022-12-07T06:50:56.687Z,2.60
2022-12-07T06:53:23.890Z,2.60
2022-12-07T06:55:51.391Z,2.60
2022-12-07T06:58:19.359Z,2.60
2022-12-07T07:00:48.741Z,2.70
2022-12-07T07:03:16.061Z,2.70
2022-12-07T07:05:44.348Z,2.70
2022-12-07T07:08:27.600Z,2.70
2022-12-07T07:10:54.806Z,2.70
2022-12-07T07:13:21.982Z,2.80
2022-12-07T07:15:49.190Z,2.80
2022-12-07T07:18:16.384Z,2.80
2022-12-07T07:20:43.554Z,2.80
2022-12-07T07:23:10.717Z,2.90
2022-12-07T07:25:38.102Z,2.90
2022-12-07T07:28:05.648Z,2.90
2022-12-07T07:30:32.902Z,2.90
2022-12-07T07:33:01.150Z,2.80
2022-12-07T07:35:30.126Z,2.90
2022-12-07T07:37:57.393Z,3.00
2022-12-07T07:40:25.668Z,3.00
2022-12-07T07:42:54.341Z,3.00
2022-12-07T07:45:23.362Z,3.00
2022-12-07T07:47:51.057Z,3.00
2022-12-07T07:50:18.851Z,3.00
2022-12-07T07:52:46.265Z,3.10
2022-12-07T07:55:20.939Z,3.10
2022-12-07T07:57:54.217Z,3.10
2022-12-07T08:00:22.677Z,3.10
2022-12-07T08:02:49.871Z,3.10
2022-12-07T08:05:17.721Z,3.10
2022-12-07T08:07:45.087Z,3.20
2022-12-07T08:10:14.043Z,3.20
2022-12-07T08:13:01.529Z,3.10
2022-12-07T08:15:30.398Z,3.10
2022-12-07T08:17:57.698Z,3.10
2022-12-07T08:20:24.851Z,3.10
2022-12-07T08:22:52.062Z,3.10
2022-12-07T08:25:19.468Z,3.10
2022-12-07T08:27:46.711Z,3.10
2022-12-07T08:30:14.290Z,3.10
2022-12-07T08:32:41.564Z,3.10
2022-12-07T08:35:09.374Z,3.20
2022-12-07T08:37:37.014Z,3.30
2022-12-07T08:40:06.292Z,3.30
2022-12-07T08:42:38.814Z,3.30
2022-12-07T08:45:12.050Z,3.30
2022-12-07T08:47:53.068Z,3.40
2022-12-07T08:50:20.735Z,3.30
2022-12-07T08:52:53.225Z,3.40
2022-12-07T08:55:20.886Z,3.40
2022-12-07T08:57:49.118Z,3.50
2022-12-07T09:00:17.767Z,3.50
2022-12-07T09:02:46.438Z,3.50
2022-12-07T09:05:16.910Z,3.60
2022-12-07T09:07:47.006Z,3.60
2022-12-07T09:10:14.257Z,3.60
2022-12-07T09:12:41.444Z,3.70
2022-12-07T09:15:09.136Z,3.70
2022-12-07T09:17:37.010Z,3.70
2022-12-07T09:20:06.621Z,3.70
2022-12-07T09:22:34.121Z,3.80
2022-12-07T09:25:02.111Z,3.80
2022-12-07T09:27:29.395Z,3.80
2022-12-07T09:29:56.568Z,3.90
2022-12-07T09:32:24.352Z,4.00
2022-12-07T09:34:51.748Z,4.00
2022-12-07T09:37:19.018Z,4.10
2022-12-07T09:39:50.310Z,4.10
2022-12-07T09:42:35.511Z,4.20
2022-12-07T09:45:05.402Z,4.30
2022-12-07T09:47:35.030Z,4.40
2022-12-07T09:50:07.370Z,4.40
2022-12-07T09:52:38.660Z,4.50
2022-12-07T09:55:16.159Z,4.50
2022-12-07T09:57:44.164Z,4.50
2022-12-07T10:00:17.946Z,4.50
2022-12-07T10:02:50.738Z,4.60
2022-12-07T10:05:25.250Z,4.60
2022-12-07T10:07:53.059Z,4.70
2022-12-07T10:10:32.693Z,4.80
2022-12-07T10:13:06.769Z,4.80
2022-12-07T10:15:47.925Z,4.80
2022-12-07T10:18:42.263Z,4.80
2022-12-07T10:21:09.861Z,4.80
2022-12-07T10:23:40.067Z,4.90
2022-12-07T10:26:31.139Z,4.90
2022-12-07T10:29:15.930Z,4.90
2022-12-07T10:31:44.371Z,5.00
2022-12-07T10:34:26.729Z,5.00
2022-12-07T10:37:07.170Z,5.10
2022-12-07T10:39:49.192Z,5.20
2022-12-07T10:42:25.423Z,5.10
2022-12-07T10:45:12.658Z,5.10
2022-12-07T10:47:46.759Z,5.00
2022-12-07T10:50:32.345Z,5.00
2022-12-07T10:53:17.622Z,5.10
2022-12-07T10:56:23.178Z,5.10
2022-12-07T10:59:27.863Z,5.00
2022-12-07T11:02:22.038Z,5.10
2022-12-07T11:05:11.220Z,5.10
2022-12-07T11:07:58.226Z,5.00
2022-12-07T11:11:17.037Z,5.00
2022-12-07T11:14:04.237Z,5.00
2022-12-07T11:16:43.189Z,5.00
2022-12-07T11:19:28.741Z,5.00
2022-12-07T11:22:02.621Z,5.00
2022-12-07T11:24:50.769Z,4.90
2022-12-07T11:27:36.131Z,5.00
2022-12-07T11:30:24.563Z,5.00
2022-12-07T11:33:00.401Z,5.10
2022-12-07T11:36:11.950Z,5.20
2022-12-07T11:38:43.678Z,5.30
2022-12-07T11:41:14.386Z,5.40
2022-12-07T11:43:56.782Z,5.40
2022-12-07T11:46:46.187Z,5.50
2022-12-07T11:49:38.200Z,5.60
2022-12-07T11:52:14.542Z,5.50
2022-12-07T11:54:44.773Z,5.40
2022-12-07T11:57:23.455Z,5.50
2022-12-07T11:59:57.274Z,5.30
2022-12-07T12:02:38.078Z,5.20
2022-12-07T12:05:22.268Z,5.30
2022-12-07T12:11:09.659Z,5.40
2022-12-07T12:17:31.520Z,5.30
2022-12-07T12:20:04.428Z,5.40
2022-12-07T12:22:41.770Z,5.50
2022-12-07T12:25:30.863Z,5.60
2022-12-07T12:28:00.141Z,5.80
2022-12-07T12:30:41.427Z,5.90
2022-12-07T12:33:23.485Z,5.90
2022-12-07T12:36:16.636Z,5.90
2022-12-07T12:38:50.929Z,5.90
2022-12-07T12:41:50.810Z,5.90
2022-12-07T12:44:20.708Z,5.80
2022-12-07T12:46:58.416Z,5.80
2022-12-07T12:49:28.256Z,5.70
2022-12-07T12:52:00.972Z,5.70
2022-12-07T12:54:52.932Z,5.60
2022-12-07T12:57:29.072Z,5.70
2022-12-07T12:59:56.172Z,5.60
2022-12-07T13:02:37.433Z,5.60
2022-12-07T13:05:13.176Z,5.50
2022-12-07T13:07:52.552Z,5.40
2022-12-07T13:10:31.854Z,5.50
2022-12-07T13:13:02.004Z,5.50
2022-12-07T13:16:07.638Z,5.50
2022-12-07T13:18:34.770Z,5.50
2022-12-07T13:21:07.739Z,5.50
2022-12-07T13:23:46.911Z,5.40
2022-12-07T13:26:27.192Z,5.30
2022-12-07T13:29:14.891Z,5.30
2022-12-07T13:31:45.182Z,5.40
2022-12-07T13:34:35.566Z,5.50
2022-12-07T13:37:18.443Z,5.60
2022-12-07T13:39:54.975Z,5.70
2022-12-07T13:42:33.507Z,5.70
2022-12-07T13:45:18.280Z,5.60
2022-12-07T13:47:57.222Z,5.60
2022-12-07T13:50:25.900Z,5.50
2022-12-07T13:52:57.258Z,5.60
2022-12-07T13:55:24.454Z,5.60
2022-12-07T13:57:54.439Z,5.70
2022-12-07T14:00:26.479Z,5.80
2022-12-07T14:03:02.138Z,5.80
2022-12-07T14:05:32.805Z,5.70
2022-12-07T14:08:01.445Z,5.60
2022-12-07T14:10:32.872Z,5.60
2022-12-07T14:13:01.703Z,5.60
2022-12-07T14:15:34.870Z,5.50
2022-12-07T14:18:06.519Z,5.40
2022-12-07T14:20:41.914Z,5.20
2022-12-07T14:23:26.070Z,5.20
2022-12-07T14:25:54.162Z,5.00
2022-12-07T14:28:35.404Z,5.00
2022-12-07T14:31:03.929Z,5.00
2022-12-07T14:33:31.187Z,5.00
2022-12-07T14:35:59.189Z,5.10
2022-12-07T14:38:27.329Z,5.20
2022-12-07T14:40:55.912Z,5.20
2022-12-07T14:43:23.081Z,5.20
2022-12-07T14:45:50.293Z,5.20
2022-12-07T14:53:57.247Z,5.00
2022-12-07T14:56:25.819Z,5.00
2022-12-07T14:58:53.115Z,4.90
2022-12-07T15:01:20.554Z,4.90
2022-12-07T15:03:47.831Z,4.70
2022-12-07T15:06:18.921Z,4.50
2022-12-07T15:08:46.261Z,4.40
2022-12-07T15:11:15.562Z,4.30
2022-12-07T15:14:01.374Z,4.20
2022-12-07T15:16:33.471Z,4.10
2022-12-07T15:19:27.905Z,3.90
2022-12-07T15:21:56.264Z,3.90
2022-12-07T15:24:24.972Z,3.70
2022-12-07T15:26:52.514Z,3.70
2022-12-07T15:29:23.205Z,3.70
2022-12-07T15:31:57.485Z,3.60
2022-12-07T15:34:27.491Z,3.50
2022-12-07T15:36:55.007Z,3.40
2022-12-07T15:39:22.730Z,3.30
2022-12-07T15:41:50.503Z,3.20
2022-12-07T15:44:36.126Z,3.20
2022-12-07T15:47:04.641Z,3.20
2022-12-07T15:49:32.110Z,3.20
2022-12-07T15:51:59.304Z,3.20
2022-12-07T15:54:28.403Z,3.20
2022-12-07T15:56:56.777Z,3.20
2022-12-07T15:59:24.374Z,3.20
2022-12-07T16:01:51.797Z,3.20
2022-12-07T16:04:19.545Z,3.20
2022-12-07T16:06:47.320Z,3.20
2022-12-07T16:09:14.534Z,3.10
2022-12-07T16:11:41.707Z,3.20
2022-12-07T16:14:09.008Z,3.10
2022-12-07T16:16:36.232Z,3.10
2022-12-07T16:19:03.811Z,3.10
2022-12-07T16:21:30.982Z,3.00
2022-12-07T16:24:01.307Z,2.90
2022-12-07T16:26:28.645Z,3.00
2022-12-07T16:28:56.331Z,2.90
2022-12-07T16:31:26.726Z,2.90
2022-12-07T16:33:57.061Z,2.90
2022-12-07T16:36:55.200Z,2.90
2022-12-07T16:39:13.324Z,2.90
2022-12-07T16:41:40.524Z,2.90
2022-12-07T16:44:10.772Z,2.90
2022-12-07T16:46:38.008Z,2.90
2022-12-07T16:49:05.716Z,2.80
2022-12-07T16:51:35.525Z,2.80
2022-12-07T16:54:02.711Z,2.80
2022-12-07T16:56:30.071Z,2.80
2022-12-07T16:58:59.515Z,2.80
2022-12-07T17:01:29.058Z,2.80
2022-12-07T17:03:58.451Z,2.80
2022-12-07T17:06:28.539Z,2.70
2022-12-07T17:08:57.811Z,2.70
2022-12-07T17:11:31.747Z,2.70
2022-12-07T17:14:19.414Z,2.70
2022-12-07T17:16:47.513Z,2.70
2022-12-07T17:19:16.854Z,2.70
2022-12-07T17:21:44.372Z,2.70
2022-12-07T17:24:15.088Z,2.70
2022-12-07T17:26:43.599Z,2.70
2022-12-07T17:29:13.360Z,2.60
2022-12-07T17:31:43.868Z,2.60
2022-12-07T17:34:16.382Z,2.50
2022-12-07T17:36:43.739Z,2.40
2022-12-07T17:39:14.178Z,2.40
2022-12-07T17:41:59.650Z,2.40
2022-12-07T17:44:28.789Z,2.30
2022-12-07T17:46:59.677Z,2.30
2022-12-07T17:49:27.385Z,2.30
2022-12-07T17:52:14.182Z,2.20
2022-12-07T17:54:41.559Z,2.30
2022-12-07T17:57:09.088Z,2.20
2022-12-07T17:59:36.353Z,2.30
2022-12-07T18:02:04.019Z,2.30
2022-12-07T18:04:31.267Z,2.30
2022-12-07T18:06:58.480Z,2.30
2022-12-07T18:09:25.721Z,2.30
2022-12-07T18:11:53.003Z,2.30
2022-12-07T18:14:20.225Z,2.40
2022-12-07T18:16:47.502Z,2.40
2022-12-07T18:19:15.808Z,2.40
2022-12-07T18:21:44.018Z,2.40
2022-12-07T18:24:13.136Z,2.50
2022-12-07T18:26:40.940Z,2.50
2022-12-07T18:29:10.359Z,2.50
2022-12-07T18:31:38.333Z,2.60
2022-12-07T18:34:12.022Z,2.60
2022-12-07T18:36:42.177Z,2.60
2022-12-07T18:39:09.965Z,2.60
2022-12-07T18:41:38.718Z,2.60
2022-12-07T18:44:07.022Z,2.70
2022-12-07T18:46:35.434Z,2.70
2022-12-07T18:49:04.211Z,2.70
2022-12-07T18:51:32.646Z,2.70
2022-12-07T18:54:04.567Z,2.80
2022-12-07T18:56:32.166Z,2.80
2022-12-07T18:59:19.906Z,2.80
2022-12-07T19:01:53.057Z,2.80
2022-12-07T19:04:20.871Z,2.90
2022-12-07T19:06:49.403Z,2.90
2022-12-07T19:09:17.361Z,2.90
2022-12-07T19:11:50.556Z,2.90
2022-12-07T19:14:21.545Z,2.90
2022-12-07T19:16:50.696Z,2.90
2022-12-07T19:19:20.896Z,2.90
2022-12-07T19:21:48.592Z,3.00
2022-12-07T19:24:21.287Z,3.00
2022-12-07T19:26:51.527Z,3.00
2022-12-07T19:29:19.165Z,3.10
2022-12-07T19:31:46.770Z,3.20
2022-12-07T19:34:16.114Z,3.10
2022-12-07T19:36:43.962Z,3.10
2022-12-07T19:39:14.805Z,3.10
2022-12-07T19:41:44.642Z,3.10
2022-12-07T19:44:21.689Z,3.10
2022-12-07T19:46:50.877Z,3.10
2022-12-07T19:49:23.107Z,3.10
2022-12-07T19:51:52.806Z,3.10
2022-12-07T19:54:26.135Z,3.20
2022-12-07T19:56:54.121Z,3.10
2022-12-07T19:59:23.657Z,3.10
2022-12-07T20:01:51.282Z,3.00
2022-12-07T20:04:21.638Z,3.00
2022-12-07T20:06:54.489Z,2.90
2022-12-07T20:09:22.738Z,2.90
2022-12-07T20:12:09.142Z,2.90
2022-12-07T20:14:37.073Z,2.90
2022-12-07T20:17:04.706Z,3.00
2022-12-07T20:19:32.097Z,3.00
2022-12-07T20:21:59.249Z,2.90
2022-12-07T20:24:26.565Z,3.00
2022-12-07T20:26:54.790Z,3.00
2022-12-07T20:29:24.889Z,2.90
2022-12-07T20:31:54.036Z,2.90
2022-12-07T20:34:21.446Z,2.80
2022-12-07T20:36:48.725Z,2.90
2022-12-07T20:39:16.250Z,2.80
2022-12-07T20:42:02.045Z,2.80
2022-12-07T20:44:29.220Z,2.80
2022-12-07T20:46:56.511Z,2.70
2022-12-07T20:49:23.675Z,2.70
2022-12-07T20:51:51.386Z,2.70
2022-12-07T20:54:18.702Z,2.70
2022-12-07T20:56:45.880Z,2.70
2022-12-07T20:59:15.311Z,2.70
2022-12-07T21:01:43.724Z,2.60
2022-12-07T21:04:13.026Z,2.60
2022-12-07T21:06:40.480Z,2.60
2022-12-07T21:09:09.554Z,2.60
2022-12-07T21:11:37.558Z,2.60
2022-12-07T21:14:04.884Z,2.60
2022-12-07T21:16:32.719Z,2.60
2022-12-07T21:19:04.840Z,2.60
2022-12-07T21:21:33.215Z,2.70
2022-12-07T21:24:02.978Z,2.70
2022-12-07T21:26:35.437Z,2.70
2022-12-07T21:29:04.561Z,2.70
2022-12-07T21:31:32.214Z,2.80
2022-12-07T21:34:02.386Z,2.70
2022-12-07T21:36:29.886Z,2.70
2022-12-07T21:38:57.553Z,2.70
2022-12-07T21:41:27.542Z,2.70
2022-12-07T21:43:55.518Z,2.70
2022-12-07T21:46:29.623Z,2.70
2022-12-07T21:49:03.572Z,2.70
2022-12-07T21:51:31.315Z,2.70
2022-12-07T21:53:59.921Z,2.70
2022-12-07T21:56:33.159Z,2.70
2022-12-07T21:59:05.159Z,2.70
2022-12-07T22:01:37.761Z,2.70
2022-12-07T22:04:08.001Z,2.70
2022-12-07T22:06:37.193Z,2.70
2022-12-07T22:09:06.316Z,2.80
2022-12-07T22:11:34.323Z,2.80
2022-12-07T22:14:21.506Z,2.80
2022-12-07T22:16:48.799Z,2.80
2022-12-07T22:19:16.015Z,2.90
2022-12-07T22:21:43.238Z,2.90
2022-12-07T22:24:11.400Z,2.90
2022-12-07T22:26:38.554Z,2.90
2022-12-07T22:29:05.698Z,2.90
2022-12-07T22:31:33.024Z,2.90
2022-12-07T22:34:00.223Z,2.90
2022-12-07T22:36:29.169Z,2.90
2022-12-07T22:38:56.870Z,2.90
2022-12-07T22:41:27.297Z,2.90
2022-12-07T22:43:55.499Z,2.90
2022-12-07T22:46:23.862Z,2.90
2022-12-07T22:48:51.565Z,2.80
2022-12-07T22:51:27.757Z,2.80
2022-12-07T22:53:55.188Z,2.80
2022-12-07T22:56:22.894Z,2.80
2022-12-07T22:58:50.134Z,2.80
2022-12-07T23:01:19.204Z,2.80
2022-12-07T23:03:46.493Z,2.80
2022-12-07T23:06:22.470Z,2.80
2022-12-07T23:08:50.990Z,2.80
2022-12-07T23:11:43.240Z,2.80
2022-12-07T23:14:19.634Z,2.80
2022-12-07T23:16:46.903Z,2.80
2022-12-07T23:19:14.591Z,2.80
2022-12-07T23:21:42.840Z,2.80
2022-12-07T23:24:13.157Z,2.80
2022-12-07T23:26:44.571Z,2.80
2022-12-07T23:29:17.261Z,2.80
2022-12-07T23:31:46.988Z,2.80
2022-12-07T23:34:14.368Z,2.90
2022-12-07T23:36:41.569Z,2.80
2022-12-07T23:39:10.458Z,2.80
2022-12-07T23:41:37.922Z,2.90
2022-12-07T23:44:05.424Z,2.80
2022-12-07T23:46:33.718Z,2.80
2022-12-07T23:49:02.779Z,2.80
2022-12-07T23:51:30.504Z,2.90
2022-12-07T23:53:59.542Z,2.80
2022-12-07T23:56:28.800Z,2.80
2022-12-07T23:58:56.751Z,2.90
